sensor_id;sensor_type;location;lat;lon;timestamp;temperature;humidity
7666;DHT22;3875;46.562;4.898;2023-07-02T00:01:21;20.80;80.20
7666;DHT22;3875;46.562;4.898;2023-07-02T00:03:47;20.90;80.00
7666;DHT22;3875;46.562;4.898;2023-07-02T00:06:12;20.80;80.20
7666;DHT22;3875;46.562;4.898;2023-07-02T00:08:38;20.80;80.30
7666;DHT22;3875;46.562;4.898;2023-07-02T00:11:06;20.80;80.20
7666;DHT22;3875;46.562;4.898;2023-07-02T00:13:31;20.80;80.00
7666;DHT22;3875;46.562;4.898;2023-07-02T00:15:57;20.80;79.80
7666;DHT22;3875;46.562;4.898;2023-07-02T00:18:24;20.80;79.70
7666;DHT22;3875;46.562;4.898;2023-07-02T00:20:54;20.70;79.70
7666;DHT22;3875;46.562;4.898;2023-07-02T00:23:20;20.70;80.00
7666;DHT22;3875;46.562;4.898;2023-07-02T00:25:46;20.70;79.80
7666;DHT22;3875;46.562;4.898;2023-07-02T00:28:12;20.60;80.10
7666;DHT22;3875;46.562;4.898;2023-07-02T00:30:38;20.60;80.30
7666;DHT22;3875;46.562;4.898;2023-07-02T00:33:03;20.60;80.40
7666;DHT22;3875;46.562;4.898;2023-07-02T00:35:29;20.40;80.90
7666;DHT22;3875;46.562;4.898;2023-07-02T00:37:55;20.30;81.50
7666;DHT22;3875;46.562;4.898;2023-07-02T00:40:20;20.10;82.30
7666;DHT22;3875;46.562;4.898;2023-07-02T00:42:46;20.00;82.80
7666;DHT22;3875;46.562;4.898;2023-07-02T00:45:11;20.00;83.00
7666;DHT22;3875;46.562;4.898;2023-07-02T00:47:37;19.90;83.40
7666;DHT22;3875;46.562;4.898;2023-07-02T00:50:03;19.90;83.50
7666;DHT22;3875;46.562;4.898;2023-07-02T00:52:30;19.90;83.90
7666;DHT22;3875;46.562;4.898;2023-07-02T00:54:55;19.90;83.90
7666;DHT22;3875;46.562;4.898;2023-07-02T00:57:21;19.90;84.00
7666;DHT22;3875;46.562;4.898;2023-07-02T00:59:47;19.80;84.10
7666;DHT22;3875;46.562;4.898;2023-07-02T01:02:12;19.80;84.10
7666;DHT22;3875;46.562;4.898;2023-07-02T01:04:39;19.80;84.10
7666;DHT22;3875;46.562;4.898;2023-07-02T01:07:05;19.90;83.80
7666;DHT22;3875;46.562;4.898;2023-07-02T01:09:36;20.00;83.50
7666;DHT22;3875;46.562;4.898;2023-07-02T01:12:04;20.00;83.50
7666;DHT22;3875;46.562;4.898;2023-07-02T01:14:34;20.10;83.50
7666;DHT22;3875;46.562;4.898;2023-07-02T01:17:02;20.20;83.00
7666;DHT22;3875;46.562;4.898;2023-07-02T01:19:49;20.20;82.90
7666;DHT22;3875;46.562;4.898;2023-07-02T01:22:23;20.30;82.70
7666;DHT22;3875;46.562;4.898;2023-07-02T01:24:50;20.40;82.60
7666;DHT22;3875;46.562;4.898;2023-07-02T01:27:16;20.30;82.30
7666;DHT22;3875;46.562;4.898;2023-07-02T01:29:43;20.30;82.30
7666;DHT22;3875;46.562;4.898;2023-07-02T01:32:10;20.20;82.50
7666;DHT22;3875;46.562;4.898;2023-07-02T01:34:36;20.10;82.80
7666;DHT22;3875;46.562;4.898;2023-07-02T01:37:03;20.00;83.10
7666;DHT22;3875;46.562;4.898;2023-07-02T01:39:28;19.90;83.50
7666;DHT22;3875;46.562;4.898;2023-07-02T01:41:55;19.90;83.60
7666;DHT22;3875;46.562;4.898;2023-07-02T01:44:32;19.80;84.00
7666;DHT22;3875;46.562;4.898;2023-07-02T01:46:57;19.80;84.10
7666;DHT22;3875;46.562;4.898;2023-07-02T01:49:24;19.80;84.20
7666;DHT22;3875;46.562;4.898;2023-07-02T01:51:51;19.90;84.00
7666;DHT22;3875;46.562;4.898;2023-07-02T01:54:18;20.00;84.00
7666;DHT22;3875;46.562;4.898;2023-07-02T01:56:43;20.00;83.70
7666;DHT22;3875;46.562;4.898;2023-07-02T01:59:09;20.00;83.60
7666;DHT22;3875;46.562;4.898;2023-07-02T02:01:35;20.00;83.50
7666;DHT22;3875;46.562;4.898;2023-07-02T02:04:00;20.00;83.60
7666;DHT22;3875;46.562;4.898;2023-07-02T02:06:26;20.00;83.60
7666;DHT22;3875;46.562;4.898;2023-07-02T02:08:52;20.10;83.40
7666;DHT22;3875;46.562;4.898;2023-07-02T02:11:17;20.10;83.20
7666;DHT22;3875;46.562;4.898;2023-07-02T02:13:43;20.10;83.30
7666;DHT22;3875;46.562;4.898;2023-07-02T02:16:10;20.00;83.50
7666;DHT22;3875;46.562;4.898;2023-07-02T02:18:35;20.00;83.50
7666;DHT22;3875;46.562;4.898;2023-07-02T02:21:01;20.00;83.60
7666;DHT22;3875;46.562;4.898;2023-07-02T02:23:27;19.90;83.90
7666;DHT22;3875;46.562;4.898;2023-07-02T02:25:52;19.80;84.40
7666;DHT22;3875;46.562;4.898;2023-07-02T02:28:18;19.80;84.50
7666;DHT22;3875;46.562;4.898;2023-07-02T02:30:43;19.80;84.70
7666;DHT22;3875;46.562;4.898;2023-07-02T02:33:09;19.70;84.90
7666;DHT22;3875;46.562;4.898;2023-07-02T02:35:35;19.80;84.70
7666;DHT22;3875;46.562;4.898;2023-07-02T02:38:04;19.80;85.00
7666;DHT22;3875;46.562;4.898;2023-07-02T02:40:32;19.80;85.20
7666;DHT22;3875;46.562;4.898;2023-07-02T02:42:58;19.70;85.50
7666;DHT22;3875;46.562;4.898;2023-07-02T02:45:24;19.60;86.00
7666;DHT22;3875;46.562;4.898;2023-07-02T02:47:49;19.70;85.90
7666;DHT22;3875;46.562;4.898;2023-07-02T02:50:15;19.60;86.10
7666;DHT22;3875;46.562;4.898;2023-07-02T02:52:41;19.70;86.10
7666;DHT22;3875;46.562;4.898;2023-07-02T02:55:08;19.70;86.00
7666;DHT22;3875;46.562;4.898;2023-07-02T02:57:34;19.70;86.10
7666;DHT22;3875;46.562;4.898;2023-07-02T03:00:00;19.70;86.20
7666;DHT22;3875;46.562;4.898;2023-07-02T03:02:25;19.70;86.20
7666;DHT22;3875;46.562;4.898;2023-07-02T03:04:51;19.70;86.40
7666;DHT22;3875;46.562;4.898;2023-07-02T03:07:17;19.60;86.70
7666;DHT22;3875;46.562;4.898;2023-07-02T03:09:42;19.60;86.60
7666;DHT22;3875;46.562;4.898;2023-07-02T03:12:08;19.50;87.30
7666;DHT22;3875;46.562;4.898;2023-07-02T03:14:34;19.40;87.50
7666;DHT22;3875;46.562;4.898;2023-07-02T03:17:00;19.40;87.70
7666;DHT22;3875;46.562;4.898;2023-07-02T03:19:26;19.40;87.60
7666;DHT22;3875;46.562;4.898;2023-07-02T03:21:51;19.40;87.90
7666;DHT22;3875;46.562;4.898;2023-07-02T03:24:17;19.30;88.40
7666;DHT22;3875;46.562;4.898;2023-07-02T03:26:43;19.20;88.80
7666;DHT22;3875;46.562;4.898;2023-07-02T03:29:09;19.10;89.30
7666;DHT22;3875;46.562;4.898;2023-07-02T03:31:35;19.20;89.00
7666;DHT22;3875;46.562;4.898;2023-07-02T03:34:07;19.30;88.80
7666;DHT22;3875;46.562;4.898;2023-07-02T03:36:33;19.40;88.40
7666;DHT22;3875;46.562;4.898;2023-07-02T03:38:59;19.50;88.10
7666;DHT22;3875;46.562;4.898;2023-07-02T03:41:25;19.50;88.20
7666;DHT22;3875;46.562;4.898;2023-07-02T03:43:50;19.50;88.10
7666;DHT22;3875;46.562;4.898;2023-07-02T03:46:16;19.60;88.00
7666;DHT22;3875;46.562;4.898;2023-07-02T03:48:42;19.60;88.10
7666;DHT22;3875;46.562;4.898;2023-07-02T03:51:08;19.50;88.20
7666;DHT22;3875;46.562;4.898;2023-07-02T03:53:33;19.50;88.50
7666;DHT22;3875;46.562;4.898;2023-07-02T03:55:59;19.50;88.40
7666;DHT22;3875;46.562;4.898;2023-07-02T03:58:25;19.50;88.40
7666;DHT22;3875;46.562;4.898;2023-07-02T04:00:51;19.50;88.50
7666;DHT22;3875;46.562;4.898;2023-07-02T04:03:17;19.50;88.50
7666;DHT22;3875;46.562;4.898;2023-07-02T04:05:43;19.60;88.50
7666;DHT22;3875;46.562;4.898;2023-07-02T04:08:09;19.50;88.60
7666;DHT22;3875;46.562;4.898;2023-07-02T04:10:35;19.50;88.70
7666;DHT22;3875;46.562;4.898;2023-07-02T04:13:01;19.50;88.80
7666;DHT22;3875;46.562;4.898;2023-07-02T04:15:27;19.50;88.80
7666;DHT22;3875;46.562;4.898;2023-07-02T04:17:53;19.50;88.90
7666;DHT22;3875;46.562;4.898;2023-07-02T04:20:19;19.50;89.00
7666;DHT22;3875;46.562;4.898;2023-07-02T04:22:45;19.50;89.10
7666;DHT22;3875;46.562;4.898;2023-07-02T04:25:14;19.40;89.60
7666;DHT22;3875;46.562;4.898;2023-07-02T04:27:43;19.40;89.80
7666;DHT22;3875;46.562;4.898;2023-07-02T04:30:10;19.40;89.60
7666;DHT22;3875;46.562;4.898;2023-07-02T04:32:36;19.40;89.60
7666;DHT22;3875;46.562;4.898;2023-07-02T04:35:05;19.40;89.80
7666;DHT22;3875;46.562;4.898;2023-07-02T04:37:31;19.30;90.40
7666;DHT22;3875;46.562;4.898;2023-07-02T04:39:57;19.20;90.70
7666;DHT22;3875;46.562;4.898;2023-07-02T04:42:23;19.20;91.10
7666;DHT22;3875;46.562;4.898;2023-07-02T04:44:55;19.10;91.20
7666;DHT22;3875;46.562;4.898;2023-07-02T04:47:20;19.10;91.30
7666;DHT22;3875;46.562;4.898;2023-07-02T04:49:46;19.20;91.30
7666;DHT22;3875;46.562;4.898;2023-07-02T04:52:12;19.10;91.70
7666;DHT22;3875;46.562;4.898;2023-07-02T04:54:38;19.10;91.60
7666;DHT22;3875;46.562;4.898;2023-07-02T04:57:04;19.10;91.90
7666;DHT22;3875;46.562;4.898;2023-07-02T04:59:29;19.10;91.90
7666;DHT22;3875;46.562;4.898;2023-07-02T05:01:55;19.20;91.80
7666;DHT22;3875;46.562;4.898;2023-07-02T05:04:21;19.20;91.60
7666;DHT22;3875;46.562;4.898;2023-07-02T05:06:46;19.30;91.70
7666;DHT22;3875;46.562;4.898;2023-07-02T05:09:12;19.20;91.80
7666;DHT22;3875;46.562;4.898;2023-07-02T05:11:38;19.20;91.90
7666;DHT22;3875;46.562;4.898;2023-07-02T05:14:04;19.10;92.50
7666;DHT22;3875;46.562;4.898;2023-07-02T05:16:30;19.10;93.00
7666;DHT22;3875;46.562;4.898;2023-07-02T05:18:56;19.10;93.10
7666;DHT22;3875;46.562;4.898;2023-07-02T05:21:22;19.10;93.30
7666;DHT22;3875;46.562;4.898;2023-07-02T05:23:48;18.90;94.10
7666;DHT22;3875;46.562;4.898;2023-07-02T05:26:14;18.80;94.30
7666;DHT22;3875;46.562;4.898;2023-07-02T05:28:39;19.00;94.20
7666;DHT22;3875;46.562;4.898;2023-07-02T05:31:05;18.90;94.40
7666;DHT22;3875;46.562;4.898;2023-07-02T05:33:31;19.00;94.30
7666;DHT22;3875;46.562;4.898;2023-07-02T05:35:58;19.00;94.30
7666;DHT22;3875;46.562;4.898;2023-07-02T05:38:24;19.00;94.40
7666;DHT22;3875;46.562;4.898;2023-07-02T05:40:50;19.00;94.60
7666;DHT22;3875;46.562;4.898;2023-07-02T05:43:16;19.00;94.60
7666;DHT22;3875;46.562;4.898;2023-07-02T05:45:41;18.80;95.10
7666;DHT22;3875;46.562;4.898;2023-07-02T05:48:07;18.80;95.40
7666;DHT22;3875;46.562;4.898;2023-07-02T05:50:33;18.70;96.00
7666;DHT22;3875;46.562;4.898;2023-07-02T05:52:59;18.70;96.20
7666;DHT22;3875;46.562;4.898;2023-07-02T05:55:24;18.70;96.30
7666;DHT22;3875;46.562;4.898;2023-07-02T05:57:50;18.70;96.50
7666;DHT22;3875;46.562;4.898;2023-07-02T06:00:16;18.70;96.60
7666;DHT22;3875;46.562;4.898;2023-07-02T06:02:42;18.80;96.60
7666;DHT22;3875;46.562;4.898;2023-07-02T06:05:08;18.90;96.30
7666;DHT22;3875;46.562;4.898;2023-07-02T06:07:33;19.00;96.30
7666;DHT22;3875;46.562;4.898;2023-07-02T06:09:59;19.10;96.10
7666;DHT22;3875;46.562;4.898;2023-07-02T06:12:24;19.30;95.80
7666;DHT22;3875;46.562;4.898;2023-07-02T06:14:50;19.40;95.50
7666;DHT22;3875;46.562;4.898;2023-07-02T06:17:16;19.40;95.20
7666;DHT22;3875;46.562;4.898;2023-07-02T06:19:42;19.30;94.70
7666;DHT22;3875;46.562;4.898;2023-07-02T06:22:07;19.30;94.90
7666;DHT22;3875;46.562;4.898;2023-07-02T06:24:33;19.30;94.70
7666;DHT22;3875;46.562;4.898;2023-07-02T06:26:59;19.30;94.70
7666;DHT22;3875;46.562;4.898;2023-07-02T06:29:24;19.40;94.50
7666;DHT22;3875;46.562;4.898;2023-07-02T06:31:50;19.30;94.70
7666;DHT22;3875;46.562;4.898;2023-07-02T06:34:16;19.20;95.00
7666;DHT22;3875;46.562;4.898;2023-07-02T06:36:42;19.00;95.80
7666;DHT22;3875;46.562;4.898;2023-07-02T06:39:08;18.80;96.20
7666;DHT22;3875;46.562;4.898;2023-07-02T06:41:35;18.80;96.70
7666;DHT22;3875;46.562;4.898;2023-07-02T06:44:01;18.90;96.50
7666;DHT22;3875;46.562;4.898;2023-07-02T06:46:27;19.10;95.90
7666;DHT22;3875;46.562;4.898;2023-07-02T06:48:52;19.30;95.40
7666;DHT22;3875;46.562;4.898;2023-07-02T06:51:18;19.50;94.70
7666;DHT22;3875;46.562;4.898;2023-07-02T06:53:45;19.60;94.30
7666;DHT22;3875;46.562;4.898;2023-07-02T06:56:11;19.80;94.20
7666;DHT22;3875;46.562;4.898;2023-07-02T06:58:36;19.90;93.90
7666;DHT22;3875;46.562;4.898;2023-07-02T07:01:02;20.00;93.50
7666;DHT22;3875;46.562;4.898;2023-07-02T07:03:28;20.10;92.80
7666;DHT22;3875;46.562;4.898;2023-07-02T07:05:54;20.20;92.80
7666;DHT22;3875;46.562;4.898;2023-07-02T07:08:19;20.20;92.60
7666;DHT22;3875;46.562;4.898;2023-07-02T07:10:45;20.30;92.50
7666;DHT22;3875;46.562;4.898;2023-07-02T07:13:11;20.40;92.40
7666;DHT22;3875;46.562;4.898;2023-07-02T07:15:37;20.50;92.30
7666;DHT22;3875;46.562;4.898;2023-07-02T07:18:03;20.50;91.70
7666;DHT22;3875;46.562;4.898;2023-07-02T07:20:30;20.50;91.40
7666;DHT22;3875;46.562;4.898;2023-07-02T07:22:56;20.60;91.80
7666;DHT22;3875;46.562;4.898;2023-07-02T07:25:22;20.90;91.50
7666;DHT22;3875;46.562;4.898;2023-07-02T07:27:48;21.20;91.20
7666;DHT22;3875;46.562;4.898;2023-07-02T07:30:14;21.40;90.10
7666;DHT22;3875;46.562;4.898;2023-07-02T07:32:40;21.40;89.20
7666;DHT22;3875;46.562;4.898;2023-07-02T07:35:07;21.50;88.80
7666;DHT22;3875;46.562;4.898;2023-07-02T07:37:33;21.60;88.70
7666;DHT22;3875;46.562;4.898;2023-07-02T07:39:58;21.60;88.10
7666;DHT22;3875;46.562;4.898;2023-07-02T07:42:24;21.70;88.00
7666;DHT22;3875;46.562;4.898;2023-07-02T07:44:50;21.90;87.70
7666;DHT22;3875;46.562;4.898;2023-07-02T07:47:16;22.00;87.50
7666;DHT22;3875;46.562;4.898;2023-07-02T07:49:41;22.10;86.60
7666;DHT22;3875;46.562;4.898;2023-07-02T07:52:07;22.10;86.40
7666;DHT22;3875;46.562;4.898;2023-07-02T07:54:33;22.20;86.00
7666;DHT22;3875;46.562;4.898;2023-07-02T07:57:03;22.20;85.90
7666;DHT22;3875;46.562;4.898;2023-07-02T07:59:29;22.20;85.60
7666;DHT22;3875;46.562;4.898;2023-07-02T08:01:55;22.10;85.60
7666;DHT22;3875;46.562;4.898;2023-07-02T08:04:20;22.00;85.40
7666;DHT22;3875;46.562;4.898;2023-07-02T08:06:46;22.00;85.70
7666;DHT22;3875;46.562;4.898;2023-07-02T08:09:12;22.00;85.70
7666;DHT22;3875;46.562;4.898;2023-07-02T08:11:37;22.00;86.10
7666;DHT22;3875;46.562;4.898;2023-07-02T08:14:03;22.10;86.30
7666;DHT22;3875;46.562;4.898;2023-07-02T08:16:29;22.10;86.40
7666;DHT22;3875;46.562;4.898;2023-07-02T08:18:54;22.20;86.00
7666;DHT22;3875;46.562;4.898;2023-07-02T08:21:20;22.00;85.80
7666;DHT22;3875;46.562;4.898;2023-07-02T08:23:46;22.10;86.00
7666;DHT22;3875;46.562;4.898;2023-07-02T08:26:11;22.10;86.00
7666;DHT22;3875;46.562;4.898;2023-07-02T08:28:38;22.40;86.90
7666;DHT22;3875;46.562;4.898;2023-07-02T08:31:04;23.10;86.00
7666;DHT22;3875;46.562;4.898;2023-07-02T08:33:30;23.60;84.80
7666;DHT22;3875;46.562;4.898;2023-07-02T08:35:56;23.70;82.10
7666;DHT22;3875;46.562;4.898;2023-07-02T08:38:23;24.00;81.80
7666;DHT22;3875;46.562;4.898;2023-07-02T08:40:52;24.50;79.60
7666;DHT22;3875;46.562;4.898;2023-07-02T08:43:17;24.90;79.30
7666;DHT22;3875;46.562;4.898;2023-07-02T08:45:43;24.90;77.90
7666;DHT22;3875;46.562;4.898;2023-07-02T08:48:12;24.70;78.10
7666;DHT22;3875;46.562;4.898;2023-07-02T08:50:37;24.90;76.60
7666;DHT22;3875;46.562;4.898;2023-07-02T08:53:03;25.20;76.90
7666;DHT22;3875;46.562;4.898;2023-07-02T08:55:29;25.00;77.20
7666;DHT22;3875;46.562;4.898;2023-07-02T08:57:56;24.90;76.80
7666;DHT22;3875;46.562;4.898;2023-07-02T09:00:28;24.10;77.00
7666;DHT22;3875;46.562;4.898;2023-07-02T09:02:56;23.70;78.40
7666;DHT22;3875;46.562;4.898;2023-07-02T09:05:22;23.70;79.10
7666;DHT22;3875;46.562;4.898;2023-07-02T09:07:49;23.70;79.40
7666;DHT22;3875;46.562;4.898;2023-07-02T09:10:41;23.90;79.60
7666;DHT22;3875;46.562;4.898;2023-07-02T09:13:07;24.30;78.60
7666;DHT22;3875;46.562;4.898;2023-07-02T09:15:38;25.00;78.10
7666;DHT22;3875;46.562;4.898;2023-07-02T09:20:40;26.10;75.00
7666;DHT22;3875;46.562;4.898;2023-07-02T09:23:06;26.80;74.90
7666;DHT22;3875;46.562;4.898;2023-07-02T09:25:39;27.20;73.00
7666;DHT22;3875;46.562;4.898;2023-07-02T09:28:19;26.80;70.90
7666;DHT22;3875;46.562;4.898;2023-07-02T09:30:56;26.50;71.10
7666;DHT22;3875;46.562;4.898;2023-07-02T09:33:25;26.50;73.00
7666;DHT22;3875;46.562;4.898;2023-07-02T09:35:51;26.50;72.20
7666;DHT22;3875;46.562;4.898;2023-07-02T09:38:20;26.30;72.50
7666;DHT22;3875;46.562;4.898;2023-07-02T09:40:49;26.40;71.10
7666;DHT22;3875;46.562;4.898;2023-07-02T09:43:16;26.30;70.90
7666;DHT22;3875;46.562;4.898;2023-07-02T09:45:46;26.50;71.10
7666;DHT22;3875;46.562;4.898;2023-07-02T09:48:16;26.70;71.60
7666;DHT22;3875;46.562;4.898;2023-07-02T09:50:47;27.10;70.40
7666;DHT22;3875;46.562;4.898;2023-07-02T09:53:13;27.20;69.80
7666;DHT22;3875;46.562;4.898;2023-07-02T09:55:44;27.60;68.40
7666;DHT22;3875;46.562;4.898;2023-07-02T09:58:10;27.70;68.70
7666;DHT22;3875;46.562;4.898;2023-07-02T10:00:42;27.50;68.00
7666;DHT22;3875;46.562;4.898;2023-07-02T10:03:07;27.20;68.30
7666;DHT22;3875;46.562;4.898;2023-07-02T10:05:33;26.80;69.20
7666;DHT22;3875;46.562;4.898;2023-07-02T10:08:19;26.60;69.20
7666;DHT22;3875;46.562;4.898;2023-07-02T10:10:48;26.40;69.80
7666;DHT22;3875;46.562;4.898;2023-07-02T10:13:14;26.40;70.30
7666;DHT22;3875;46.562;4.898;2023-07-02T10:15:39;26.50;70.60
7666;DHT22;3875;46.562;4.898;2023-07-02T10:18:06;26.20;67.90
7666;DHT22;3875;46.562;4.898;2023-07-02T10:23:02;25.60;70.60
7666;DHT22;3875;46.562;4.898;2023-07-02T10:25:29;25.60;69.80
7666;DHT22;3875;46.562;4.898;2023-07-02T10:27:55;25.30;70.00
7666;DHT22;3875;46.562;4.898;2023-07-02T10:30:34;25.60;70.50
7666;DHT22;3875;46.562;4.898;2023-07-02T10:33:12;25.50;69.20
7666;DHT22;3875;46.562;4.898;2023-07-02T10:35:43;25.40;69.90
7666;DHT22;3875;46.562;4.898;2023-07-02T10:38:20;25.40;69.90
7666;DHT22;3875;46.562;4.898;2023-07-02T10:40:46;25.60;70.50
7666;DHT22;3875;46.562;4.898;2023-07-02T10:43:12;25.70;69.50
7666;DHT22;3875;46.562;4.898;2023-07-02T10:45:37;25.70;69.90
7666;DHT22;3875;46.562;4.898;2023-07-02T10:48:08;25.80;69.70
7666;DHT22;3875;46.562;4.898;2023-07-02T10:50:34;25.40;69.20
7666;DHT22;3875;46.562;4.898;2023-07-02T10:53:00;25.50;70.10
7666;DHT22;3875;46.562;4.898;2023-07-02T10:55:27;25.50;69.20
7666;DHT22;3875;46.562;4.898;2023-07-02T10:58:10;26.10;69.50
7666;DHT22;3875;46.562;4.898;2023-07-02T11:00:45;26.10;67.60
7666;DHT22;3875;46.562;4.898;2023-07-02T11:03:24;26.10;68.30
7666;DHT22;3875;46.562;4.898;2023-07-02T11:05:51;26.30;66.70
7666;DHT22;3875;46.562;4.898;2023-07-02T11:08:17;27.00;66.40
7666;DHT22;3875;46.562;4.898;2023-07-02T11:10:43;26.90;65.90
7666;DHT22;3875;46.562;4.898;2023-07-02T11:13:13;27.20;66.10
7666;DHT22;3875;46.562;4.898;2023-07-02T11:15:39;27.70;64.70
7666;DHT22;3875;46.562;4.898;2023-07-02T11:18:17;27.70;64.40
7666;DHT22;3875;46.562;4.898;2023-07-02T11:20:47;27.90;61.40
7666;DHT22;3875;46.562;4.898;2023-07-02T11:23:22;27.80;61.60
7666;DHT22;3875;46.562;4.898;2023-07-02T11:25:58;28.10;63.20
7666;DHT22;3875;46.562;4.898;2023-07-02T11:28:25;28.60;58.50
7666;DHT22;3875;46.562;4.898;2023-07-02T11:30:51;28.80;60.50
7666;DHT22;3875;46.562;4.898;2023-07-02T11:33:17;29.30;59.10
7666;DHT22;3875;46.562;4.898;2023-07-02T11:35:43;29.90;59.50
7666;DHT22;3875;46.562;4.898;2023-07-02T11:38:12;29.80;57.60
7666;DHT22;3875;46.562;4.898;2023-07-02T11:40:38;29.90;57.30
7666;DHT22;3875;46.562;4.898;2023-07-02T11:43:04;29.80;55.30
7666;DHT22;3875;46.562;4.898;2023-07-02T11:45:31;30.10;55.30
7666;DHT22;3875;46.562;4.898;2023-07-02T11:47:57;30.30;55.60
7666;DHT22;3875;46.562;4.898;2023-07-02T11:50:23;30.60;55.40
7666;DHT22;3875;46.562;4.898;2023-07-02T11:52:48;31.50;55.40
7666;DHT22;3875;46.562;4.898;2023-07-02T11:55:14;31.20;53.30
7666;DHT22;3875;46.562;4.898;2023-07-02T11:57:40;30.40;54.70
7666;DHT22;3875;46.562;4.898;2023-07-02T12:00:06;30.20;55.80
7666;DHT22;3875;46.562;4.898;2023-07-02T12:02:31;29.40;53.70
7666;DHT22;3875;46.562;4.898;2023-07-02T12:04:57;29.40;55.20
7666;DHT22;3875;46.562;4.898;2023-07-02T12:07:23;29.70;54.70
7666;DHT22;3875;46.562;4.898;2023-07-02T12:09:50;29.30;55.20
7666;DHT22;3875;46.562;4.898;2023-07-02T12:12:15;29.40;55.00
7666;DHT22;3875;46.562;4.898;2023-07-02T12:14:41;29.40;54.90
7666;DHT22;3875;46.562;4.898;2023-07-02T12:17:09;29.10;54.50
7666;DHT22;3875;46.562;4.898;2023-07-02T12:19:40;28.70;55.60
7666;DHT22;3875;46.562;4.898;2023-07-02T12:22:07;28.30;57.10
7666;DHT22;3875;46.562;4.898;2023-07-02T12:24:32;28.50;57.70
7666;DHT22;3875;46.562;4.898;2023-07-02T12:26:58;29.30;57.90
7666;DHT22;3875;46.562;4.898;2023-07-02T12:29:24;29.40;56.70
7666;DHT22;3875;46.562;4.898;2023-07-02T12:31:50;29.50;56.80
7666;DHT22;3875;46.562;4.898;2023-07-02T12:34:15;30.00;56.00
7666;DHT22;3875;46.562;4.898;2023-07-02T12:36:41;30.60;57.10
7666;DHT22;3875;46.562;4.898;2023-07-02T12:39:07;31.30;57.00
7666;DHT22;3875;46.562;4.898;2023-07-02T12:41:33;31.60;56.40
7666;DHT22;3875;46.562;4.898;2023-07-02T12:43:59;31.60;54.80
7666;DHT22;3875;46.562;4.898;2023-07-02T12:46:25;31.20;55.30
7666;DHT22;3875;46.562;4.898;2023-07-02T12:48:50;31.50;54.80
7666;DHT22;3875;46.562;4.898;2023-07-02T12:51:16;31.20;53.90
7666;DHT22;3875;46.562;4.898;2023-07-02T12:53:41;30.90;55.00
7666;DHT22;3875;46.562;4.898;2023-07-02T12:56:07;30.60;55.00
7666;DHT22;3875;46.562;4.898;2023-07-02T12:58:33;30.80;53.90
7666;DHT22;3875;46.562;4.898;2023-07-02T13:00:59;30.80;54.20
7666;DHT22;3875;46.562;4.898;2023-07-02T13:03:24;31.00;55.00
7666;DHT22;3875;46.562;4.898;2023-07-02T13:05:50;31.00;53.90
7666;DHT22;3875;46.562;4.898;2023-07-02T13:08:16;30.20;52.60
7666;DHT22;3875;46.562;4.898;2023-07-02T13:10:42;30.70;53.40
7666;DHT22;3875;46.562;4.898;2023-07-02T13:13:08;30.40;52.80
7666;DHT22;3875;46.562;4.898;2023-07-02T13:15:34;30.70;54.20
7666;DHT22;3875;46.562;4.898;2023-07-02T13:18:00;30.30;53.20
7666;DHT22;3875;46.562;4.898;2023-07-02T13:20:26;30.10;51.70
7666;DHT22;3875;46.562;4.898;2023-07-02T13:22:52;30.50;54.10
7666;DHT22;3875;46.562;4.898;2023-07-02T13:25:18;30.90;52.20
7666;DHT22;3875;46.562;4.898;2023-07-02T13:27:43;31.10;52.40
7666;DHT22;3875;46.562;4.898;2023-07-02T13:30:09;31.20;52.70
7666;DHT22;3875;46.562;4.898;2023-07-02T13:32:35;30.90;52.20
7666;DHT22;3875;46.562;4.898;2023-07-02T13:35:01;31.40;51.30
7666;DHT22;3875;46.562;4.898;2023-07-02T13:37:26;30.60;50.30
7666;DHT22;3875;46.562;4.898;2023-07-02T13:39:52;30.50;52.60
7666;DHT22;3875;46.562;4.898;2023-07-02T13:42:18;30.50;52.70
7666;DHT22;3875;46.562;4.898;2023-07-02T13:44:45;30.70;51.70
7666;DHT22;3875;46.562;4.898;2023-07-02T13:47:10;30.70;52.50
7666;DHT22;3875;46.562;4.898;2023-07-02T13:49:36;30.60;52.40
7666;DHT22;3875;46.562;4.898;2023-07-02T13:52:02;30.30;53.30
7666;DHT22;3875;46.562;4.898;2023-07-02T13:54:28;30.70;53.20
7666;DHT22;3875;46.562;4.898;2023-07-02T13:56:56;30.90;52.70
7666;DHT22;3875;46.562;4.898;2023-07-02T13:59:22;30.90;52.20
7666;DHT22;3875;46.562;4.898;2023-07-02T14:01:48;30.80;53.00
7666;DHT22;3875;46.562;4.898;2023-07-02T14:04:14;30.70;54.10
7666;DHT22;3875;46.562;4.898;2023-07-02T14:06:40;30.70;53.00
7666;DHT22;3875;46.562;4.898;2023-07-02T14:09:06;30.70;53.70
7666;DHT22;3875;46.562;4.898;2023-07-02T14:11:38;30.80;54.20
7666;DHT22;3875;46.562;4.898;2023-07-02T14:14:04;30.60;52.70
7666;DHT22;3875;46.562;4.898;2023-07-02T14:16:31;30.80;52.00
7666;DHT22;3875;46.562;4.898;2023-07-02T14:18:57;31.40;52.70
7666;DHT22;3875;46.562;4.898;2023-07-02T14:21:23;31.70;52.30
7666;DHT22;3875;46.562;4.898;2023-07-02T14:23:48;31.30;48.80
7666;DHT22;3875;46.562;4.898;2023-07-02T14:26:14;30.80;50.70
7666;DHT22;3875;46.562;4.898;2023-07-02T14:28:40;31.00;50.00
7666;DHT22;3875;46.562;4.898;2023-07-02T14:31:06;30.70;47.80
7666;DHT22;3875;46.562;4.898;2023-07-02T14:33:34;30.60;48.30
7666;DHT22;3875;46.562;4.898;2023-07-02T14:36:01;30.80;48.70
7666;DHT22;3875;46.562;4.898;2023-07-02T14:38:27;30.60;47.80
7666;DHT22;3875;46.562;4.898;2023-07-02T14:40:54;31.30;48.70
7666;DHT22;3875;46.562;4.898;2023-07-02T14:43:22;31.00;49.50
7666;DHT22;3875;46.562;4.898;2023-07-02T14:45:50;30.60;49.60
7666;DHT22;3875;46.562;4.898;2023-07-02T14:48:17;30.30;51.00
7666;DHT22;3875;46.562;4.898;2023-07-02T14:50:49;30.60;52.40
7666;DHT22;3875;46.562;4.898;2023-07-02T14:53:19;31.00;50.30
7666;DHT22;3875;46.562;4.898;2023-07-02T14:55:45;31.20;51.20
7666;DHT22;3875;46.562;4.898;2023-07-02T14:58:12;31.60;50.10
7666;DHT22;3875;46.562;4.898;2023-07-02T15:00:49;31.40;48.90
7666;DHT22;3875;46.562;4.898;2023-07-02T15:03:15;30.30;49.60
7666;DHT22;3875;46.562;4.898;2023-07-02T15:05:41;30.20;50.70
7666;DHT22;3875;46.562;4.898;2023-07-02T15:08:08;30.40;50.60
7666;DHT22;3875;46.562;4.898;2023-07-02T15:10:34;31.10;49.70
7666;DHT22;3875;46.562;4.898;2023-07-02T15:13:01;30.70;50.10
7666;DHT22;3875;46.562;4.898;2023-07-02T15:15:26;30.30;50.40
7666;DHT22;3875;46.562;4.898;2023-07-02T15:17:52;30.40;51.10
7666;DHT22;3875;46.562;4.898;2023-07-02T15:20:18;30.40;50.70
7666;DHT22;3875;46.562;4.898;2023-07-02T15:22:43;30.10;49.80
7666;DHT22;3875;46.562;4.898;2023-07-02T15:25:09;29.60;50.30
7666;DHT22;3875;46.562;4.898;2023-07-02T15:27:35;29.70;49.90
7666;DHT22;3875;46.562;4.898;2023-07-02T15:30:01;29.60;50.30
7666;DHT22;3875;46.562;4.898;2023-07-02T15:32:26;29.60;51.60
7666;DHT22;3875;46.562;4.898;2023-07-02T15:34:52;29.80;51.90
7666;DHT22;3875;46.562;4.898;2023-07-02T15:37:18;30.10;50.30
7666;DHT22;3875;46.562;4.898;2023-07-02T15:39:44;30.30;51.20
7666;DHT22;3875;46.562;4.898;2023-07-02T15:42:09;30.30;50.60
7666;DHT22;3875;46.562;4.898;2023-07-02T15:44:35;30.00;51.50
7666;DHT22;3875;46.562;4.898;2023-07-02T15:47:01;30.30;52.60
7666;DHT22;3875;46.562;4.898;2023-07-02T15:49:28;30.40;50.30
7666;DHT22;3875;46.562;4.898;2023-07-02T15:51:54;30.20;50.80
7666;DHT22;3875;46.562;4.898;2023-07-02T15:54:20;29.50;51.70
7666;DHT22;3875;46.562;4.898;2023-07-02T15:56:46;28.70;52.30
7666;DHT22;3875;46.562;4.898;2023-07-02T15:59:12;29.00;52.60
7666;DHT22;3875;46.562;4.898;2023-07-02T16:01:38;29.50;53.00
7666;DHT22;3875;46.562;4.898;2023-07-02T16:04:05;29.80;51.90